sensor_id;sensor_type;location;lat;lon;timestamp;P1;durP1;ratioP1;P2;durP2;ratioP2
5867;SDS011;2960;49.142;7.768;2022-11-24T00:01:07;10.27;;;4.13;;
5867;SDS011;2960;49.142;7.768;2022-11-24T00:03:39;9.80;;;4.27;;
5867;SDS011;2960;49.142;7.768;2022-11-24T00:06:08;11.93;;;4.03;;
5867;SDS011;2960;49.142;7.768;2022-11-24T00:08:38;10.90;;;4.00;;
5867;SDS011;2960;49.142;7.768;2022-11-24T00:11:07;10.63;;;4.30;;
5867;SDS011;2960;49.142;7.768;2022-11-24T00:13:36;10.43;;;4.13;;
5867;SDS011;2960;49.142;7.768;2022-11-24T00:16:05;9.73;;;3.97;;
5867;SDS011;2960;49.142;7.768;2022-11-24T00:18:34;9.90;;;4.20;;
5867;SDS011;2960;49.142;7.768;2022-11-24T00:21:05;9.90;;;4.33;;
5867;SDS011;2960;49.142;7.768;2022-11-24T00:23:34;9.40;;;3.90;;
5867;SDS011;2960;49.142;7.768;2022-11-24T00:26:03;9.50;;;4.13;;
5867;SDS011;2960;49.142;7.768;2022-11-24T00:28:32;9.20;;;3.90;;
5867;SDS011;2960;49.142;7.768;2022-11-24T00:31:00;10.43;;;4.40;;
5867;SDS011;2960;49.142;7.768;2022-11-24T00:33:28;9.60;;;4.30;;
5867;SDS011;2960;49.142;7.768;2022-11-24T00:35:55;10.73;;;4.33;;
5867;SDS011;2960;49.142;7.768;2022-11-24T00:38:25;9.87;;;4.30;;
5867;SDS011;2960;49.142;7.768;2022-11-24T00:40:52;9.40;;;3.93;;
5867;SDS011;2960;49.142;7.768;2022-11-24T00:43:19;9.30;;;3.93;;
5867;SDS011;2960;49.142;7.768;2022-11-24T00:45:46;13.83;;;4.10;;
5867;SDS011;2960;49.142;7.768;2022-11-24T00:48:13;9.10;;;3.93;;
5867;SDS011;2960;49.142;7.768;2022-11-24T00:50:40;10.40;;;4.10;;
5867;SDS011;2960;49.142;7.768;2022-11-24T00:53:07;10.97;;;4.50;;
5867;SDS011;2960;49.142;7.768;2022-11-24T00:55:36;9.47;;;4.13;;
5867;SDS011;2960;49.142;7.768;2022-11-24T00:58:03;10.13;;;4.00;;
5867;SDS011;2960;49.142;7.768;2022-11-24T01:00:30;9.80;;;4.17;;
5867;SDS011;2960;49.142;7.768;2022-11-24T01:03:00;9.83;;;4.30;;
5867;SDS011;2960;49.142;7.768;2022-11-24T01:05:27;9.27;;;3.87;;
5867;SDS011;2960;49.142;7.768;2022-11-24T01:07:54;9.70;;;4.00;;
5867;SDS011;2960;49.142;7.768;2022-11-24T01:10:21;11.20;;;4.23;;
5867;SDS011;2960;49.142;7.768;2022-11-24T01:12:49;10.00;;;4.20;;
5867;SDS011;2960;49.142;7.768;2022-11-24T01:15:16;10.13;;;3.97;;
5867;SDS011;2960;49.142;7.768;2022-11-24T01:17:43;11.40;;;4.37;;
5867;SDS011;2960;49.142;7.768;2022-11-24T01:20:10;10.47;;;4.40;;
5867;SDS011;2960;49.142;7.768;2022-11-24T01:22:38;9.73;;;4.03;;
5867;SDS011;2960;49.142;7.768;2022-11-24T01:25:06;11.30;;;4.90;;
5867;SDS011;2960;49.142;7.768;2022-11-24T01:27:34;12.07;;;4.47;;
5867;SDS011;2960;49.142;7.768;2022-11-24T01:30:04;10.70;;;4.50;;
5867;SDS011;2960;49.142;7.768;2022-11-24T01:32:33;11.03;;;4.33;;
5867;SDS011;2960;49.142;7.768;2022-11-24T01:35:01;10.87;;;4.47;;
5867;SDS011;2960;49.142;7.768;2022-11-24T01:37:28;11.33;;;4.60;;
5867;SDS011;2960;49.142;7.768;2022-11-24T01:39:55;9.43;;;4.07;;
5867;SDS011;2960;49.142;7.768;2022-11-24T01:42:23;9.90;;;4.10;;
5867;SDS011;2960;49.142;7.768;2022-11-24T01:44:52;15.03;;;4.43;;
5867;SDS011;2960;49.142;7.768;2022-11-24T01:48:06;9.40;;;4.00;;
5867;SDS011;2960;49.142;7.768;2022-11-24T01:50:42;11.00;;;3.97;;
5867;SDS011;2960;49.142;7.768;2022-11-24T01:53:09;9.70;;;4.17;;
5867;SDS011;2960;49.142;7.768;2022-11-24T01:55:39;10.07;;;4.23;;
5867;SDS011;2960;49.142;7.768;2022-11-24T01:58:07;9.40;;;4.00;;
5867;SDS011;2960;49.142;7.768;2022-11-24T02:00:41;10.40;;;4.53;;
5867;SDS011;2960;49.142;7.768;2022-11-24T02:03:10;10.23;;;4.30;;
5867;SDS011;2960;49.142;7.768;2022-11-24T02:05:44;10.83;;;4.20;;
5867;SDS011;2960;49.142;7.768;2022-11-24T02:08:16;9.90;;;4.10;;
5867;SDS011;2960;49.142;7.768;2022-11-24T02:10:50;12.20;;;4.50;;
5867;SDS011;2960;49.142;7.768;2022-11-24T02:13:17;11.90;;;4.10;;
5867;SDS011;2960;49.142;7.768;2022-11-24T02:15:46;9.50;;;4.10;;
5867;SDS011;2960;49.142;7.768;2022-11-24T02:18:14;10.43;;;4.40;;
5867;SDS011;2960;49.142;7.768;2022-11-24T02:20:41;11.33;;;4.10;;
5867;SDS011;2960;49.142;7.768;2022-11-24T02:23:12;11.13;;;4.37;;
5867;SDS011;2960;49.142;7.768;2022-11-24T02:25:55;10.50;;;4.30;;
5867;SDS011;2960;49.142;7.768;2022-11-24T02:28:33;14.03;;;4.30;;
5867;SDS011;2960;49.142;7.768;2022-11-24T02:31:00;11.83;;;4.40;;
5867;SDS011;2960;49.142;7.768;2022-11-24T02:33:29;10.47;;;4.47;;
5867;SDS011;2960;49.142;7.768;2022-11-24T02:35:58;10.60;;;4.07;;
5867;SDS011;2960;49.142;7.768;2022-11-24T02:38:29;11.30;;;4.27;;
5867;SDS011;2960;49.142;7.768;2022-11-24T02:40:59;10.73;;;4.10;;
5867;SDS011;2960;49.142;7.768;2022-11-24T02:43:30;13.43;;;4.60;;
5867;SDS011;2960;49.142;7.768;2022-11-24T02:46:03;10.00;;;4.30;;
5867;SDS011;2960;49.142;7.768;2022-11-24T02:48:30;11.50;;;4.03;;
5867;SDS011;2960;49.142;7.768;2022-11-24T02:50:58;13.00;;;4.10;;
5867;SDS011;2960;49.142;7.768;2022-11-24T02:53:25;9.70;;;4.13;;
5867;SDS011;2960;49.142;7.768;2022-11-24T02:55:52;10.63;;;4.13;;
5867;SDS011;2960;49.142;7.768;2022-11-24T02:58:19;11.07;;;4.40;;
5867;SDS011;2960;49.142;7.768;2022-11-24T03:00:47;10.90;;;4.50;;
5867;SDS011;2960;49.142;7.768;2022-11-24T03:03:18;9.60;;;4.10;;
5867;SDS011;2960;49.142;7.768;2022-11-24T03:05:45;10.60;;;4.07;;
5867;SDS011;2960;49.142;7.768;2022-11-24T03:08:12;11.30;;;4.10;;
5867;SDS011;2960;49.142;7.768;2022-11-24T03:10:39;9.37;;;3.90;;
5867;SDS011;2960;49.142;7.768;2022-11-24T03:13:06;12.10;;;4.10;;
5867;SDS011;2960;49.142;7.768;2022-11-24T03:15:33;8.97;;;3.80;;
5867;SDS011;2960;49.142;7.768;2022-11-24T03:18:02;11.23;;;3.83;;
5867;SDS011;2960;49.142;7.768;2022-11-24T03:20:29;11.47;;;4.17;;
5867;SDS011;2960;49.142;7.768;2022-11-24T03:22:56;10.00;;;4.10;;
5867;SDS011;2960;49.142;7.768;2022-11-24T03:25:23;10.50;;;4.03;;
5867;SDS011;2960;49.142;7.768;2022-11-24T03:27:50;10.13;;;4.03;;
5867;SDS011;2960;49.142;7.768;2022-11-24T03:30:18;10.63;;;3.90;;
5867;SDS011;2960;49.142;7.768;2022-11-24T03:32:45;9.87;;;3.93;;
5867;SDS011;2960;49.142;7.768;2022-11-24T03:35:13;8.90;;;3.53;;
5867;SDS011;2960;49.142;7.768;2022-11-24T03:37:40;9.87;;;4.20;;
5867;SDS011;2960;49.142;7.768;2022-11-24T03:40:08;10.90;;;4.30;;
5867;SDS011;2960;49.142;7.768;2022-11-24T03:42:36;13.30;;;4.70;;
5867;SDS011;2960;49.142;7.768;2022-11-24T03:45:03;10.30;;;4.20;;
5867;SDS011;2960;49.142;7.768;2022-11-24T03:47:31;9.40;;;3.97;;
5867;SDS011;2960;49.142;7.768;2022-11-24T03:49:58;11.40;;;4.20;;
5867;SDS011;2960;49.142;7.768;2022-11-24T03:52:26;10.60;;;4.40;;
5867;SDS011;2960;49.142;7.768;2022-11-24T03:54:53;9.57;;;3.90;;
5867;SDS011;2960;49.142;7.768;2022-11-24T03:57:20;10.70;;;3.90;;
5867;SDS011;2960;49.142;7.768;2022-11-24T03:59:47;10.57;;;4.43;;
5867;SDS011;2960;49.142;7.768;2022-11-24T04:02:14;12.20;;;4.20;;
5867;SDS011;2960;49.142;7.768;2022-11-24T04:04:41;12.90;;;4.10;;
5867;SDS011;2960;49.142;7.768;2022-11-24T04:07:11;10.30;;;4.00;;
5867;SDS011;2960;49.142;7.768;2022-11-24T04:09:39;10.87;;;4.17;;
5867;SDS011;2960;49.142;7.768;2022-11-24T04:12:07;10.63;;;4.23;;
5867;SDS011;2960;49.142;7.768;2022-11-24T04:14:52;12.07;;;4.17;;
5867;SDS011;2960;49.142;7.768;2022-11-24T04:17:19;10.20;;;3.90;;
5867;SDS011;2960;49.142;7.768;2022-11-24T04:19:46;11.20;;;4.13;;
5867;SDS011;2960;49.142;7.768;2022-11-24T04:22:13;9.60;;;3.70;;
5867;SDS011;2960;49.142;7.768;2022-11-24T04:24:41;11.50;;;3.90;;
5867;SDS011;2960;49.142;7.768;2022-11-24T04:27:08;9.97;;;4.00;;
5867;SDS011;2960;49.142;7.768;2022-11-24T04:29:35;13.17;;;4.10;;
5867;SDS011;2960;49.142;7.768;2022-11-24T04:32:03;10.70;;;3.50;;
5867;SDS011;2960;49.142;7.768;2022-11-24T04:34:30;11.50;;;3.70;;
5867;SDS011;2960;49.142;7.768;2022-11-24T04:36:57;11.40;;;3.97;;
5867;SDS011;2960;49.142;7.768;2022-11-24T04:39:24;11.40;;;3.70;;
5867;SDS011;2960;49.142;7.768;2022-11-24T04:41:52;10.87;;;3.47;;
5867;SDS011;2960;49.142;7.768;2022-11-24T04:44:19;12.53;;;3.90;;
5867;SDS011;2960;49.142;7.768;2022-11-24T04:46:46;10.90;;;3.57;;
5867;SDS011;2960;49.142;7.768;2022-11-24T04:49:14;10.20;;;3.60;;
5867;SDS011;2960;49.142;7.768;2022-11-24T04:51:41;11.40;;;3.77;;
5867;SDS011;2960;49.142;7.768;2022-11-24T04:54:08;10.30;;;3.50;;
5867;SDS011;2960;49.142;7.768;2022-11-24T04:56:37;9.50;;;3.57;;
5867;SDS011;2960;49.142;7.768;2022-11-24T04:59:10;10.47;;;3.60;;
5867;SDS011;2960;49.142;7.768;2022-11-24T05:01:39;11.03;;;4.00;;
5867;SDS011;2960;49.142;7.768;2022-11-24T05:04:07;11.77;;;4.03;;
5867;SDS011;2960;49.142;7.768;2022-11-24T05:06:36;9.70;;;3.70;;
5867;SDS011;2960;49.142;7.768;2022-11-24T05:09:03;10.40;;;3.40;;
5867;SDS011;2960;49.142;7.768;2022-11-24T05:11:31;9.90;;;3.37;;
5867;SDS011;2960;49.142;7.768;2022-11-24T05:13:58;11.17;;;3.40;;
5867;SDS011;2960;49.142;7.768;2022-11-24T05:16:27;10.53;;;4.00;;
5867;SDS011;2960;49.142;7.768;2022-11-24T05:18:54;9.30;;;3.50;;
5867;SDS011;2960;49.142;7.768;2022-11-24T05:21:21;15.07;;;3.77;;
5867;SDS011;2960;49.142;7.768;2022-11-24T05:23:48;11.73;;;3.50;;
5867;SDS011;2960;49.142;7.768;2022-11-24T05:26:15;11.57;;;3.70;;
5867;SDS011;2960;49.142;7.768;2022-11-24T05:28:42;13.13;;;3.93;;
5867;SDS011;2960;49.142;7.768;2022-11-24T05:31:09;10.60;;;3.30;;
5867;SDS011;2960;49.142;7.768;2022-11-24T05:33:38;11.00;;;3.50;;
5867;SDS011;2960;49.142;7.768;2022-11-24T05:36:05;9.23;;;3.03;;
5867;SDS011;2960;49.142;7.768;2022-11-24T05:38:53;13.53;;;3.37;;
5867;SDS011;2960;49.142;7.768;2022-11-24T05:41:20;10.97;;;3.60;;
5867;SDS011;2960;49.142;7.768;2022-11-24T05:43:47;8.97;;;3.30;;
5867;SDS011;2960;49.142;7.768;2022-11-24T05:46:14;14.33;;;3.40;;
5867;SDS011;2960;49.142;7.768;2022-11-24T05:48:43;11.27;;;3.73;;
5867;SDS011;2960;49.142;7.768;2022-11-24T05:51:10;13.10;;;3.50;;
5867;SDS011;2960;49.142;7.768;2022-11-24T05:53:37;10.30;;;3.13;;
5867;SDS011;2960;49.142;7.768;2022-11-24T05:56:04;9.77;;;3.00;;
5867;SDS011;2960;49.142;7.768;2022-11-24T05:58:32;11.43;;;3.60;;
5867;SDS011;2960;49.142;7.768;2022-11-24T06:00:59;15.33;;;3.80;;
5867;SDS011;2960;49.142;7.768;2022-11-24T06:03:26;11.10;;;3.10;;
5867;SDS011;2960;49.142;7.768;2022-11-24T06:05:54;13.03;;;3.20;;
5867;SDS011;2960;49.142;7.768;2022-11-24T06:08:21;12.43;;;3.50;;
5867;SDS011;2960;49.142;7.768;2022-11-24T06:10:48;9.63;;;3.30;;
5867;SDS011;2960;49.142;7.768;2022-11-24T06:13:15;9.63;;;3.23;;
5867;SDS011;2960;49.142;7.768;2022-11-24T06:15:42;9.50;;;3.07;;
5867;SDS011;2960;49.142;7.768;2022-11-24T06:18:09;12.70;;;3.67;;
5867;SDS011;2960;49.142;7.768;2022-11-24T06:20:36;8.90;;;3.10;;
5867;SDS011;2960;49.142;7.768;2022-11-24T06:23:05;9.40;;;3.13;;
5867;SDS011;2960;49.142;7.768;2022-11-24T06:25:32;9.80;;;3.50;;
5867;SDS011;2960;49.142;7.768;2022-11-24T06:28:01;11.20;;;3.20;;
5867;SDS011;2960;49.142;7.768;2022-11-24T06:30:29;9.50;;;3.20;;
5867;SDS011;2960;49.142;7.768;2022-11-24T06:32:56;10.77;;;3.00;;
5867;SDS011;2960;49.142;7.768;2022-11-24T06:35:23;14.10;;;3.60;;
5867;SDS011;2960;49.142;7.768;2022-11-24T06:37:50;9.90;;;3.50;;
5867;SDS011;2960;49.142;7.768;2022-11-24T06:40:18;9.90;;;3.47;;
5867;SDS011;2960;49.142;7.768;2022-11-24T06:42:48;12.63;;;3.70;;
5867;SDS011;2960;49.142;7.768;2022-11-24T06:45:16;9.80;;;3.40;;
5867;SDS011;2960;49.142;7.768;2022-11-24T06:47:43;10.57;;;3.60;;
5867;SDS011;2960;49.142;7.768;2022-11-24T06:50:12;9.97;;;3.40;;
5867;SDS011;2960;49.142;7.768;2022-11-24T06:52:42;9.13;;;3.40;;
5867;SDS011;2960;49.142;7.768;2022-11-24T06:55:09;9.70;;;3.30;;
5867;SDS011;2960;49.142;7.768;2022-11-24T06:57:38;13.67;;;4.23;;
5867;SDS011;2960;49.142;7.768;2022-11-24T07:00:05;11.60;;;3.83;;
5867;SDS011;2960;49.142;7.768;2022-11-24T07:02:34;9.47;;;3.23;;
5867;SDS011;2960;49.142;7.768;2022-11-24T07:05:02;11.23;;;3.43;;
5867;SDS011;2960;49.142;7.768;2022-11-24T07:07:29;9.63;;;3.20;;
5867;SDS011;2960;49.142;7.768;2022-11-24T07:09:56;11.37;;;3.50;;
5867;SDS011;2960;49.142;7.768;2022-11-24T07:12:23;8.70;;;3.10;;
5867;SDS011;2960;49.142;7.768;2022-11-24T07:14:52;9.67;;;3.60;;
5867;SDS011;2960;49.142;7.768;2022-11-24T07:17:19;11.70;;;3.30;;
5867;SDS011;2960;49.142;7.768;2022-11-24T07:19:46;9.10;;;3.20;;
5867;SDS011;2960;49.142;7.768;2022-11-24T07:22:13;9.87;;;3.70;;
5867;SDS011;2960;49.142;7.768;2022-11-24T07:24:40;10.07;;;3.60;;
5867;SDS011;2960;49.142;7.768;2022-11-24T07:27:07;10.17;;;3.50;;
5867;SDS011;2960;49.142;7.768;2022-11-24T07:29:34;11.13;;;3.73;;
5867;SDS011;2960;49.142;7.768;2022-11-24T07:32:02;8.60;;;2.90;;
5867;SDS011;2960;49.142;7.768;2022-11-24T07:34:29;11.73;;;3.20;;
5867;SDS011;2960;49.142;7.768;2022-11-24T07:36:56;9.00;;;3.20;;
5867;SDS011;2960;49.142;7.768;2022-11-24T07:39:23;9.87;;;3.20;;
5867;SDS011;2960;49.142;7.768;2022-11-24T07:41:50;9.30;;;3.30;;
5867;SDS011;2960;49.142;7.768;2022-11-24T07:44:18;9.70;;;3.87;;
5867;SDS011;2960;49.142;7.768;2022-11-24T07:46:45;9.40;;;3.23;;
5867;SDS011;2960;49.142;7.768;2022-11-24T07:49:16;8.87;;;3.23;;
5867;SDS011;2960;49.142;7.768;2022-11-24T07:51:43;10.57;;;2.97;;
5867;SDS011;2960;49.142;7.768;2022-11-24T07:54:11;9.00;;;3.30;;
5867;SDS011;2960;49.142;7.768;2022-11-24T07:56:38;9.80;;;3.13;;
5867;SDS011;2960;49.142;7.768;2022-11-24T07:59:06;9.97;;;3.43;;
5867;SDS011;2960;49.142;7.768;2022-11-24T08:01:33;11.47;;;3.60;;
5867;SDS011;2960;49.142;7.768;2022-11-24T08:04:00;8.77;;;3.20;;
5867;SDS011;2960;49.142;7.768;2022-11-24T08:06:29;8.90;;;3.20;;
5867;SDS011;2960;49.142;7.768;2022-11-24T08:08:57;9.00;;;3.23;;
5867;SDS011;2960;49.142;7.768;2022-11-24T08:11:24;8.80;;;3.10;;
5867;SDS011;2960;49.142;7.768;2022-11-24T08:13:51;8.47;;;2.90;;
5867;SDS011;2960;49.142;7.768;2022-11-24T08:16:19;9.50;;;3.43;;
5867;SDS011;2960;49.142;7.768;2022-11-24T08:18:47;8.70;;;3.30;;
5867;SDS011;2960;49.142;7.768;2022-11-24T08:21:16;9.03;;;3.27;;
5867;SDS011;2960;49.142;7.768;2022-11-24T08:23:44;8.90;;;3.03;;
5867;SDS011;2960;49.142;7.768;2022-11-24T08:26:12;10.30;;;3.20;;
5867;SDS011;2960;49.142;7.768;2022-11-24T08:28:43;9.13;;;3.10;;
5867;SDS011;2960;49.142;7.768;2022-11-24T08:31:11;10.20;;;3.07;;
5867;SDS011;2960;49.142;7.768;2022-11-24T08:33:40;10.40;;;3.60;;
5867;SDS011;2960;49.142;7.768;2022-11-24T08:36:09;9.90;;;4.17;;
5867;SDS011;2960;49.142;7.768;2022-11-24T08:38:39;9.67;;;3.83;;
5867;SDS011;2960;49.142;7.768;2022-11-24T08:41:10;10.30;;;3.83;;
5867;SDS011;2960;49.142;7.768;2022-11-24T08:43:40;9.30;;;3.20;;
5867;SDS011;2960;49.142;7.768;2022-11-24T08:46:08;9.60;;;3.47;;
5867;SDS011;2960;49.142;7.768;2022-11-24T08:48:37;10.87;;;3.17;;
5867;SDS011;2960;49.142;7.768;2022-11-24T08:51:06;8.80;;;3.17;;
5867;SDS011;2960;49.142;7.768;2022-11-24T08:53:34;8.67;;;2.80;;
5867;SDS011;2960;49.142;7.768;2022-11-24T08:56:02;10.80;;;3.30;;
5867;SDS011;2960;49.142;7.768;2022-11-24T08:58:32;11.93;;;3.40;;
5867;SDS011;2960;49.142;7.768;2022-11-24T09:01:02;8.87;;;2.77;;
5867;SDS011;2960;49.142;7.768;2022-11-24T09:03:31;9.27;;;3.70;;
5867;SDS011;2960;49.142;7.768;2022-11-24T09:05:58;9.60;;;4.40;;
5867;SDS011;2960;49.142;7.768;2022-11-24T09:08:25;10.10;;;3.33;;
5867;SDS011;2960;49.142;7.768;2022-11-24T09:10:52;9.10;;;3.63;;
5867;SDS011;2960;49.142;7.768;2022-11-24T09:13:24;9.33;;;3.83;;
5867;SDS011;2960;49.142;7.768;2022-11-24T09:15:53;10.97;;;3.83;;
5867;SDS011;2960;49.142;7.768;2022-11-24T09:18:20;8.80;;;3.10;;
5867;SDS011;2960;49.142;7.768;2022-11-24T09:20:47;9.83;;;3.30;;
5867;SDS011;2960;49.142;7.768;2022-11-24T09:23:14;9.97;;;3.47;;
5867;SDS011;2960;49.142;7.768;2022-11-24T09:25:41;10.83;;;3.67;;
5867;SDS011;2960;49.142;7.768;2022-11-24T09:28:08;10.27;;;4.13;;
5867;SDS011;2960;49.142;7.768;2022-11-24T09:30:35;10.27;;;3.80;;
5867;SDS011;2960;49.142;7.768;2022-11-24T09:33:04;9.43;;;3.67;;
5867;SDS011;2960;49.142;7.768;2022-11-24T09:35:31;9.60;;;3.73;;
5867;SDS011;2960;49.142;7.768;2022-11-24T09:38:01;10.07;;;3.73;;
5867;SDS011;2960;49.142;7.768;2022-11-24T09:40:29;10.20;;;4.10;;
5867;SDS011;2960;49.142;7.768;2022-11-24T09:42:58;12.23;;;4.50;;
5867;SDS011;2960;49.142;7.768;2022-11-24T09:45:34;12.47;;;4.00;;
5867;SDS011;2960;49.142;7.768;2022-11-24T09:48:14;12.03;;;4.10;;
5867;SDS011;2960;49.142;7.768;2022-11-24T09:50:48;12.13;;;3.83;;
5867;SDS011;2960;49.142;7.768;2022-11-24T09:53:18;11.17;;;4.20;;
5867;SDS011;2960;49.142;7.768;2022-11-24T09:55:54;10.30;;;3.60;;
5867;SDS011;2960;49.142;7.768;2022-11-24T09:58:30;9.77;;;3.33;;
5867;SDS011;2960;49.142;7.768;2022-11-24T10:01:06;9.80;;;4.00;;
5867;SDS011;2960;49.142;7.768;2022-11-24T10:03:40;10.87;;;4.10;;
5867;SDS011;2960;49.142;7.768;2022-11-24T10:06:17;9.30;;;3.67;;
5867;SDS011;2960;49.142;7.768;2022-11-24T10:11:48;11.60;;;4.33;;
5867;SDS011;2960;49.142;7.768;2022-11-24T10:17:29;10.30;;;3.83;;
5867;SDS011;2960;49.142;7.768;2022-11-24T10:20:11;10.90;;;3.70;;
5867;SDS011;2960;49.142;7.768;2022-11-24T10:22:47;13.07;;;3.53;;
5867;SDS011;2960;49.142;7.768;2022-11-24T10:25:28;12.00;;;3.90;;
5867;SDS011;2960;49.142;7.768;2022-11-24T10:28:07;10.10;;;3.90;;
5867;SDS011;2960;49.142;7.768;2022-11-24T10:30:38;11.10;;;3.67;;
5867;SDS011;2960;49.142;7.768;2022-11-24T10:33:07;11.40;;;4.20;;
5867;SDS011;2960;49.142;7.768;2022-11-24T10:35:45;10.07;;;3.90;;
5867;SDS011;2960;49.142;7.768;2022-11-24T10:38:15;9.70;;;3.60;;
5867;SDS011;2960;49.142;7.768;2022-11-24T10:40:56;9.70;;;4.10;;
5867;SDS011;2960;49.142;7.768;2022-11-24T10:43:27;12.30;;;4.00;;
5867;SDS011;2960;49.142;7.768;2022-11-24T10:45:55;10.37;;;3.90;;
5867;SDS011;2960;49.142;7.768;2022-11-24T10:48:38;13.37;;;4.13;;
5867;SDS011;2960;49.142;7.768;2022-11-24T10:51:30;10.43;;;4.30;;
5867;SDS011;2960;49.142;7.768;2022-11-24T10:54:09;9.80;;;4.10;;
5867;SDS011;2960;49.142;7.768;2022-11-24T10:56:42;13.47;;;4.10;;
5867;SDS011;2960;49.142;7.768;2022-11-24T11:02:02;10.40;;;4.23;;
5867;SDS011;2960;49.142;7.768;2022-11-24T11:04:56;9.33;;;3.60;;
5867;SDS011;2960;49.142;7.768;2022-11-24T11:07:25;11.50;;;4.07;;
5867;SDS011;2960;49.142;7.768;2022-11-24T11:12:46;11.97;;;3.80;;
5867;SDS011;2960;49.142;7.768;2022-11-24T11:15:25;9.80;;;3.87;;
5867;SDS011;2960;49.142;7.768;2022-11-24T11:17:56;11.20;;;4.00;;
5867;SDS011;2960;49.142;7.768;2022-11-24T11:20:28;11.97;;;4.60;;
5867;SDS011;2960;49.142;7.768;2022-11-24T11:22:59;11.40;;;4.17;;
5867;SDS011;2960;49.142;7.768;2022-11-24T11:25:39;11.07;;;4.20;;
5867;SDS011;2960;49.142;7.768;2022-11-24T11:28:16;11.63;;;4.87;;
5867;SDS011;2960;49.142;7.768;2022-11-24T11:30:54;12.00;;;4.50;;
5867;SDS011;2960;49.142;7.768;2022-11-24T11:33:24;10.20;;;4.43;;
5867;SDS011;2960;49.142;7.768;2022-11-24T11:35:54;12.93;;;4.50;;
5867;SDS011;2960;49.142;7.768;2022-11-24T11:38:24;11.60;;;4.50;;
5867;SDS011;2960;49.142;7.768;2022-11-24T11:40:59;11.87;;;4.80;;
5867;SDS011;2960;49.142;7.768;2022-11-24T11:43:29;13.13;;;4.73;;
5867;SDS011;2960;49.142;7.768;2022-11-24T11:46:01;13.43;;;4.70;;
5867;SDS011;2960;49.142;7.768;2022-11-24T11:48:34;11.17;;;4.80;;
5867;SDS011;2960;49.142;7.768;2022-11-24T11:51:04;13.77;;;4.30;;
5867;SDS011;2960;49.142;7.768;2022-11-24T11:53:57;10.87;;;4.73;;
5867;SDS011;2960;49.142;7.768;2022-11-24T11:56:34;10.83;;;4.47;;
5867;SDS011;2960;49.142;7.768;2022-11-24T11:59:24;12.50;;;4.60;;
5867;SDS011;2960;49.142;7.768;2022-11-24T12:02:24;11.07;;;4.37;;
5867;SDS011;2960;49.142;7.768;2022-11-24T12:05:15;14.77;;;4.67;;
5867;SDS011;2960;49.142;7.768;2022-11-24T12:07:59;11.20;;;4.47;;
5867;SDS011;2960;49.142;7.768;2022-11-24T12:10:43;11.20;;;4.37;;
5867;SDS011;2960;49.142;7.768;2022-11-24T12:13:40;12.60;;;4.30;;
5867;SDS011;2960;49.142;7.768;2022-11-24T12:16:26;13.03;;;4.53;;
5867;SDS011;2960;49.142;7.768;2022-11-24T12:19:04;13.20;;;4.40;;
5867;SDS011;2960;49.142;7.768;2022-11-24T12:21:47;11.20;;;4.20;;
5867;SDS011;2960;49.142;7.768;2022-11-24T12:24:28;11.90;;;4.30;;
5867;SDS011;2960;49.142;7.768;2022-11-24T12:27:06;13.70;;;4.80;;
5867;SDS011;2960;49.142;7.768;2022-11-24T12:29:47;14.97;;;4.33;;
5867;SDS011;2960;49.142;7.768;2022-11-24T12:32:36;13.70;;;5.00;;
5867;SDS011;2960;49.142;7.768;2022-11-24T12:35:32;12.53;;;4.43;;
5867;SDS011;2960;49.142;7.768;2022-11-24T12:38:08;14.27;;;4.63;;
5867;SDS011;2960;49.142;7.768;2022-11-24T12:41:04;11.83;;;4.20;;
5867;SDS011;2960;49.142;7.768;2022-11-24T12:43:54;12.10;;;4.13;;
5867;SDS011;2960;49.142;7.768;2022-11-24T12:46:26;11.60;;;4.10;;
5867;SDS011;2960;49.142;7.768;2022-11-24T12:49:03;9.93;;;3.97;;
5867;SDS011;2960;49.142;7.768;2022-11-24T12:51:44;12.93;;;4.17;;
5867;SDS011;2960;49.142;7.768;2022-11-24T12:54:16;11.40;;;4.10;;
5867;SDS011;2960;49.142;7.768;2022-11-24T12:56:47;15.23;;;4.43;;
5867;SDS011;2960;49.142;7.768;2022-11-24T12:59:26;13.00;;;4.63;;
5867;SDS011;2960;49.142;7.768;2022-11-24T13:02:02;11.70;;;3.90;;
5867;SDS011;2960;49.142;7.768;2022-11-24T13:04:41;11.33;;;4.13;;
5867;SDS011;2960;49.142;7.768;2022-11-24T13:07:17;10.10;;;4.13;;
5867;SDS011;2960;49.142;7.768;2022-11-24T13:12:59;10.50;;;4.00;;
5867;SDS011;2960;49.142;7.768;2022-11-24T13:15:30;11.10;;;4.53;;
5867;SDS011;2960;49.142;7.768;2022-11-24T13:18:01;13.03;;;4.70;;
5867;SDS011;2960;49.142;7.768;2022-11-24T13:20:29;10.10;;;4.27;;
5867;SDS011;2960;49.142;7.768;2022-11-24T13:23:00;15.03;;;4.60;;
5867;SDS011;2960;49.142;7.768;2022-11-24T13:25:29;10.50;;;4.13;;
5867;SDS011;2960;49.142;7.768;2022-11-24T13:27:58;17.70;;;4.00;;
5867;SDS011;2960;49.142;7.768;2022-11-24T13:33:34;11.13;;;4.00;;
5867;SDS011;2960;49.142;7.768;2022-11-24T13:38:59;10.80;;;3.83;;
5867;SDS011;2960;49.142;7.768;2022-11-24T13:44:51;12.10;;;4.50;;
5867;SDS011;2960;49.142;7.768;2022-11-24T13:47:34;11.13;;;4.27;;
5867;SDS011;2960;49.142;7.768;2022-11-24T13:50:20;10.77;;;4.30;;
5867;SDS011;2960;49.142;7.768;2022-11-24T13:52:54;10.60;;;4.03;;
5867;SDS011;2960;49.142;7.768;2022-11-24T13:55:34;9.80;;;3.87;;
5867;SDS011;2960;49.142;7.768;2022-11-24T14:01:02;10.47;;;4.07;;
5867;SDS011;2960;49.142;7.768;2022-11-24T14:03:42;11.07;;;3.70;;
5867;SDS011;2960;49.142;7.768;2022-11-24T14:06:25;9.47;;;3.47;;
5867;SDS011;2960;49.142;7.768;2022-11-24T14:08:57;9.57;;;3.60;;
5867;SDS011;2960;49.142;7.768;2022-11-24T14:11:26;10.20;;;4.20;;
5867;SDS011;2960;49.142;7.768;2022-11-24T14:13:54;10.27;;;4.50;;
5867;SDS011;2960;49.142;7.768;2022-11-24T14:16:21;9.90;;;4.50;;
5867;SDS011;2960;49.142;7.768;2022-11-24T14:18:51;9.57;;;3.80;;
5867;SDS011;2960;49.142;7.768;2022-11-24T14:21:22;10.03;;;3.80;;
5867;SDS011;2960;49.142;7.768;2022-11-24T14:23:53;10.90;;;4.00;;
5867;SDS011;2960;49.142;7.768;2022-11-24T14:26:29;11.30;;;4.40;;
5867;SDS011;2960;49.142;7.768;2022-11-24T14:29:02;9.33;;;3.20;;
5867;SDS011;2960;49.142;7.768;2022-11-24T14:31:31;9.50;;;3.40;;
5867;SDS011;2960;49.142;7.768;2022-11-24T14:36:53;9.73;;;3.90;;
5867;SDS011;2960;49.142;7.768;2022-11-24T14:39:22;10.07;;;4.27;;
5867;SDS011;2960;49.142;7.768;2022-11-24T14:41:51;11.27;;;3.97;;
5867;SDS011;2960;49.142;7.768;2022-11-24T14:44:24;9.80;;;3.10;;
5867;SDS011;2960;49.142;7.768;2022-11-24T14:46:59;10.00;;;3.47;;
5867;SDS011;2960;49.142;7.768;2022-11-24T14:49:29;12.20;;;3.80;;
5867;SDS011;2960;49.142;7.768;2022-11-24T14:51:59;10.30;;;3.67;;
5867;SDS011;2960;49.142;7.768;2022-11-24T14:54:31;11.10;;;4.00;;
5867;SDS011;2960;49.142;7.768;2022-11-24T14:56:58;10.77;;;4.30;;
5867;SDS011;2960;49.142;7.768;2022-11-24T14:59:30;12.23;;;4.13;;
5867;SDS011;2960;49.142;7.768;2022-11-24T15:02:00;9.90;;;3.80;;
5867;SDS011;2960;49.142;7.768;2022-11-24T15:04:28;9.97;;;3.70;;
5867;SDS011;2960;49.142;7.768;2022-11-24T15:07:01;11.80;;;3.90;;
5867;SDS011;2960;49.142;7.768;2022-11-24T15:09:37;10.30;;;3.87;;
5867;SDS011;2960;49.142;7.768;2022-11-24T15:12:20;9.83;;;3.87;;
5867;SDS011;2960;49.142;7.768;2022-11-24T15:14:53;11.90;;;4.03;;
5867;SDS011;2960;49.142;7.768;2022-11-24T15:17:24;10.67;;;3.80;;
5867;SDS011;2960;49.142;7.768;2022-11-24T15:19:55;10.63;;;4.13;;
5867;SDS011;2960;49.142;7.768;2022-11-24T15:28:03;9.60;;;3.40;;
5867;SDS011;2960;49.142;7.768;2022-11-24T15:30:30;10.27;;;3.60;;
5867;SDS011;2960;49.142;7.768;2022-11-24T15:33:00;9.63;;;3.50;;
5867;SDS011;2960;49.142;7.768;2022-11-24T15:35:30;9.40;;;3.10;;
5867;SDS011;2960;49.142;7.768;2022-11-24T15:37:58;10.07;;;3.40;;
5867;SDS011;2960;49.142;7.768;2022-11-24T15:40:25;10.70;;;3.73;;
5867;SDS011;2960;49.142;7.768;2022-11-24T15:42:52;9.80;;;3.43;;
5867;SDS011;2960;49.142;7.768;2022-11-24T15:45:22;10.00;;;3.40;;
5867;SDS011;2960;49.142;7.768;2022-11-24T15:47:51;9.47;;;3.67;;
5867;SDS011;2960;49.142;7.768;2022-11-24T15:50:18;10.10;;;3.70;;
5867;SDS011;2960;49.142;7.768;2022-11-24T15:52:48;10.80;;;3.97;;
5867;SDS011;2960;49.142;7.768;2022-11-24T15:55:16;11.03;;;3.80;;
5867;SDS011;2960;49.142;7.768;2022-11-24T15:57:45;11.00;;;4.10;;
5867;SDS011;2960;49.142;7.768;2022-11-24T16:00:13;10.37;;;4.37;;
5867;SDS011;2960;49.142;7.768;2022-11-24T16:02:44;9.80;;;4.07;;